sensor_id;sensor_type;location;lat;lon;timestamp;pressure;altitude;pressure_sealevel;temperature;humidity
76660;BME280;65579;45.534;6.212;2023-02-18T00:02:10;99663.51;;;5.47;46.71
76660;BME280;65579;45.534;6.212;2023-02-18T00:04:36;99658.79;;;5.12;47.74
76660;BME280;65579;45.534;6.212;2023-02-18T00:07:01;99657.02;;;6.19;46.94
76660;BME280;65579;45.534;6.212;2023-02-18T00:09:26;99659.99;;;5.08;46.95
76660;BME280;65579;45.534;6.212;2023-02-18T00:11:53;99659.36;;;5.17;47.59
76660;BME280;65579;45.534;6.212;2023-02-18T00:14:19;99661.66;;;4.55;46.85
76660;BME280;65579;45.534;6.212;2023-02-18T00:16:45;99660.42;;;4.35;47.97
76660;BME280;65579;45.534;6.212;2023-02-18T00:19:12;99661.36;;;4.69;48.34
76660;BME280;65579;45.534;6.212;2023-02-18T00:21:35;99662.00;;;5.05;47.56
76660;BME280;65579;45.534;6.212;2023-02-18T00:24:01;99660.58;;;5.33;46.69
76660;BME280;65579;45.534;6.212;2023-02-18T00:26:25;99659.86;;;5.89;46.03
76660;BME280;65579;45.534;6.212;2023-02-18T00:28:50;99657.70;;;5.13;46.85
76660;BME280;65579;45.534;6.212;2023-02-18T00:31:17;99653.68;;;4.23;47.59
76660;BME280;65579;45.534;6.212;2023-02-18T00:33:40;99650.92;;;4.08;48.42
76660;BME280;65579;45.534;6.212;2023-02-18T00:36:08;99650.55;;;4.89;46.23
76660;BME280;65579;45.534;6.212;2023-02-18T00:38:31;99654.08;;;4.21;47.95
76660;BME280;65579;45.534;6.212;2023-02-18T00:40:56;99655.65;;;4.41;47.26
76660;BME280;65579;45.534;6.212;2023-02-18T00:43:21;99658.48;;;4.64;47.71
76660;BME280;65579;45.534;6.212;2023-02-18T00:45:47;99659.73;;;4.58;48.65
76660;BME280;65579;45.534;6.212;2023-02-18T00:48:12;99654.13;;;3.96;49.46
76660;BME280;65579;45.534;6.212;2023-02-18T00:50:38;99650.66;;;5.03;46.89
76660;BME280;65579;45.534;6.212;2023-02-18T00:53:03;99648.57;;;4.41;47.98
76660;BME280;65579;45.534;6.212;2023-02-18T00:55:28;99644.42;;;3.93;49.03
76660;BME280;65579;45.534;6.212;2023-02-18T00:57:54;99643.26;;;3.68;48.56
76660;BME280;65579;45.534;6.212;2023-02-18T01:00:19;99640.36;;;4.50;46.24
76660;BME280;65579;45.534;6.212;2023-02-18T01:02:45;99644.52;;;3.77;48.25
76660;BME280;65579;45.534;6.212;2023-02-18T01:05:10;99642.84;;;3.50;47.95
76660;BME280;65579;45.534;6.212;2023-02-18T01:07:35;99638.65;;;3.24;49.77
76660;BME280;65579;45.534;6.212;2023-02-18T01:10:01;99637.64;;;4.49;48.23
76660;BME280;65579;45.534;6.212;2023-02-18T01:12:26;99640.61;;;4.02;49.87
76660;BME280;65579;45.534;6.212;2023-02-18T01:14:52;99636.92;;;4.29;50.24
76660;BME280;65579;45.534;6.212;2023-02-18T01:17:17;99635.30;;;4.27;48.75
76660;BME280;65579;45.534;6.212;2023-02-18T01:19:43;99632.09;;;4.55;48.21
76660;BME280;65579;45.534;6.212;2023-02-18T01:22:08;99632.42;;;5.21;47.43
76660;BME280;65579;45.534;6.212;2023-02-18T01:24:34;99630.00;;;4.50;46.88
76660;BME280;65579;45.534;6.212;2023-02-18T01:26:59;99628.45;;;4.23;46.71
76660;BME280;65579;45.534;6.212;2023-02-18T01:29:25;99631.18;;;4.85;46.42
76660;BME280;65579;45.534;6.212;2023-02-18T01:31:50;99630.35;;;5.44;45.43
76660;BME280;65579;45.534;6.212;2023-02-18T01:34:16;99633.68;;;5.78;46.49
76660;BME280;65579;45.534;6.212;2023-02-18T01:36:41;99631.98;;;5.59;45.83
76660;BME280;65579;45.534;6.212;2023-02-18T01:39:07;99629.14;;;4.75;47.68
76660;BME280;65579;45.534;6.212;2023-02-18T01:41:32;99629.12;;;5.50;47.51
76660;BME280;65579;45.534;6.212;2023-02-18T01:44:09;99628.45;;;4.21;47.51
76660;BME280;65579;45.534;6.212;2023-02-18T01:46:22;99628.23;;;5.16;47.74
76660;BME280;65579;45.534;6.212;2023-02-18T01:48:51;99629.35;;;4.13;47.43
76660;BME280;65579;45.534;6.212;2023-02-18T01:51:16;99630.38;;;4.07;47.95
76660;BME280;65579;45.534;6.212;2023-02-18T01:53:45;99633.84;;;3.70;47.75
76660;BME280;65579;45.534;6.212;2023-02-18T01:56:07;99633.45;;;3.64;48.54
76660;BME280;65579;45.534;6.212;2023-02-18T01:58:29;99631.58;;;3.71;47.39
76660;BME280;65579;45.534;6.212;2023-02-18T02:00:55;99630.77;;;3.66;47.33
76660;BME280;65579;45.534;6.212;2023-02-18T02:03:21;99631.25;;;3.83;47.41
76660;BME280;65579;45.534;6.212;2023-02-18T02:05:46;99631.91;;;3.63;47.36
76660;BME280;65579;45.534;6.212;2023-02-18T02:08:12;99631.32;;;3.98;47.00
76660;BME280;65579;45.534;6.212;2023-02-18T02:10:49;99636.54;;;3.65;48.48
76660;BME280;65579;45.534;6.212;2023-02-18T02:13:09;99631.47;;;3.01;48.72
76660;BME280;65579;45.534;6.212;2023-02-18T02:15:34;99631.66;;;3.44;48.02
76660;BME280;65579;45.534;6.212;2023-02-18T02:18:06;99630.75;;;3.33;48.76
76660;BME280;65579;45.534;6.212;2023-02-18T02:20:31;99628.67;;;3.17;49.00
76660;BME280;65579;45.534;6.212;2023-02-18T02:25:18;99620.85;;;3.32;48.34
76660;BME280;65579;45.534;6.212;2023-02-18T02:27:46;99617.64;;;3.40;48.33
76660;BME280;65579;45.534;6.212;2023-02-18T02:34:54;99616.88;;;3.01;47.37
76660;BME280;65579;45.534;6.212;2023-02-18T02:37:20;99612.38;;;2.90;48.31
76660;BME280;65579;45.534;6.212;2023-02-18T02:39:49;99612.33;;;2.88;48.78
76660;BME280;65579;45.534;6.212;2023-02-18T02:42:11;99610.74;;;2.48;49.57
76660;BME280;65579;45.534;6.212;2023-02-18T02:44:45;99610.84;;;3.22;48.27
76660;BME280;65579;45.534;6.212;2023-02-18T02:47:05;99607.53;;;3.49;48.29
76660;BME280;65579;45.534;6.212;2023-02-18T02:49:32;99607.15;;;3.52;49.12
76660;BME280;65579;45.534;6.212;2023-02-18T02:51:53;99607.70;;;2.75;49.11
76660;BME280;65579;45.534;6.212;2023-02-18T02:54:18;99610.64;;;3.27;48.72
76660;BME280;65579;45.534;6.212;2023-02-18T02:56:40;99612.95;;;2.81;48.79
76660;BME280;65579;45.534;6.212;2023-02-18T02:59:07;99614.77;;;4.64;47.01
76660;BME280;65579;45.534;6.212;2023-02-18T03:01:38;99621.21;;;3.37;48.71
76660;BME280;65579;45.534;6.212;2023-02-18T03:06:34;99616.20;;;3.67;49.77
76660;BME280;65579;45.534;6.212;2023-02-18T03:08:56;99614.02;;;3.90;48.11
76660;BME280;65579;45.534;6.212;2023-02-18T03:11:14;99615.88;;;3.13;48.66
76660;BME280;65579;45.534;6.212;2023-02-18T03:13:52;99616.84;;;3.08;49.46
76660;BME280;65579;45.534;6.212;2023-02-18T03:16:13;99618.22;;;2.36;49.05
76660;BME280;65579;45.534;6.212;2023-02-18T03:18:34;99619.55;;;1.90;49.24
76660;BME280;65579;45.534;6.212;2023-02-18T03:20:57;99623.45;;;2.17;49.66
76660;BME280;65579;45.534;6.212;2023-02-18T03:23:26;99625.13;;;2.14;49.79
76660;BME280;65579;45.534;6.212;2023-02-18T03:25:46;99627.80;;;2.49;49.93
76660;BME280;65579;45.534;6.212;2023-02-18T03:28:14;99625.12;;;2.95;50.07
76660;BME280;65579;45.534;6.212;2023-02-18T03:30:41;99623.71;;;3.17;48.85
76660;BME280;65579;45.534;6.212;2023-02-18T03:33:04;99621.08;;;3.75;48.46
76660;BME280;65579;45.534;6.212;2023-02-18T03:35:27;99617.91;;;3.61;48.89
76660;BME280;65579;45.534;6.212;2023-02-18T03:37:58;99619.64;;;3.37;48.94
76660;BME280;65579;45.534;6.212;2023-02-18T03:40:19;99619.20;;;2.78;49.32
76660;BME280;65579;45.534;6.212;2023-02-18T03:42:44;99620.60;;;2.66;48.63
76660;BME280;65579;45.534;6.212;2023-02-18T03:45:10;99622.40;;;2.06;50.46
76660;BME280;65579;45.534;6.212;2023-02-18T03:47:35;99625.49;;;3.08;48.90
76660;BME280;65579;45.534;6.212;2023-02-18T03:50:00;99622.75;;;2.27;50.49
76660;BME280;65579;45.534;6.212;2023-02-18T03:52:26;99623.94;;;2.65;49.84
76660;BME280;65579;45.534;6.212;2023-02-18T03:54:51;99625.40;;;2.60;50.08
76660;BME280;65579;45.534;6.212;2023-02-18T03:57:16;99629.45;;;2.47;49.89
76660;BME280;65579;45.534;6.212;2023-02-18T03:59:41;99633.94;;;2.52;49.54
76660;BME280;65579;45.534;6.212;2023-02-18T04:02:06;99633.63;;;2.42;49.37
76660;BME280;65579;45.534;6.212;2023-02-18T04:04:32;99633.15;;;1.88;49.62
76660;BME280;65579;45.534;6.212;2023-02-18T04:06:57;99634.97;;;2.15;48.08
76660;BME280;65579;45.534;6.212;2023-02-18T04:09:23;99637.86;;;1.69;50.45
76660;BME280;65579;45.534;6.212;2023-02-18T04:11:49;99634.57;;;2.92;48.66
76660;BME280;65579;45.534;6.212;2023-02-18T04:14:14;99637.05;;;2.21;48.82
76660;BME280;65579;45.534;6.212;2023-02-18T04:16:40;99637.04;;;1.83;49.49
76660;BME280;65579;45.534;6.212;2023-02-18T04:19:05;99634.53;;;1.73;49.31
76660;BME280;65579;45.534;6.212;2023-02-18T04:21:30;99633.32;;;1.31;50.22
76660;BME280;65579;45.534;6.212;2023-02-18T04:23:55;99636.15;;;1.61;51.47
76660;BME280;65579;45.534;6.212;2023-02-18T04:26:20;99631.88;;;2.18;50.01
76660;BME280;65579;45.534;6.212;2023-02-18T04:28:46;99632.17;;;2.56;49.90
76660;BME280;65579;45.534;6.212;2023-02-18T04:31:12;99634.97;;;2.16;49.78
76660;BME280;65579;45.534;6.212;2023-02-18T04:33:37;99638.23;;;2.10;49.43
76660;BME280;65579;45.534;6.212;2023-02-18T04:36:02;99637.64;;;3.05;47.80
76660;BME280;65579;45.534;6.212;2023-02-18T04:38:28;99638.57;;;3.06;49.89
76660;BME280;65579;45.534;6.212;2023-02-18T04:40:53;99635.88;;;3.84;49.70
76660;BME280;65579;45.534;6.212;2023-02-18T04:43:18;99634.26;;;2.91;49.24
76660;BME280;65579;45.534;6.212;2023-02-18T04:45:44;99635.55;;;2.43;49.00
76660;BME280;65579;45.534;6.212;2023-02-18T04:48:09;99636.51;;;2.54;48.69
76660;BME280;65579;45.534;6.212;2023-02-18T04:50:34;99640.17;;;2.21;51.68
76660;BME280;65579;45.534;6.212;2023-02-18T04:52:59;99638.06;;;1.76;50.15
76660;BME280;65579;45.534;6.212;2023-02-18T04:55:24;99634.92;;;1.67;50.02
76660;BME280;65579;45.534;6.212;2023-02-18T04:57:50;99628.57;;;2.21;48.91
76660;BME280;65579;45.534;6.212;2023-02-18T05:00:18;99634.18;;;1.23;50.67
76660;BME280;65579;45.534;6.212;2023-02-18T05:02:41;99636.56;;;0.98;52.21
76660;BME280;65579;45.534;6.212;2023-02-18T05:05:07;99632.34;;;1.39;51.29
76660;BME280;65579;45.534;6.212;2023-02-18T05:07:31;99628.34;;;1.16;50.60
76660;BME280;65579;45.534;6.212;2023-02-18T05:09:57;99619.67;;;1.99;49.10
76660;BME280;65579;45.534;6.212;2023-02-18T05:12:23;99620.06;;;1.31;51.02
76660;BME280;65579;45.534;6.212;2023-02-18T05:14:48;99617.97;;;1.58;49.90
76660;BME280;65579;45.534;6.212;2023-02-18T05:17:14;99613.74;;;2.17;48.99
76660;BME280;65579;45.534;6.212;2023-02-18T05:19:39;99618.89;;;2.38;48.46
76660;BME280;65579;45.534;6.212;2023-02-18T05:22:04;99616.66;;;2.12;50.03
76660;BME280;65579;45.534;6.212;2023-02-18T05:24:29;99617.71;;;3.20;48.95
76660;BME280;65579;45.534;6.212;2023-02-18T05:26:55;99613.79;;;3.02;48.44
76660;BME280;65579;45.534;6.212;2023-02-18T05:29:20;99612.13;;;2.63;49.95
76660;BME280;65579;45.534;6.212;2023-02-18T05:31:46;99611.66;;;2.36;49.55
76660;BME280;65579;45.534;6.212;2023-02-18T05:34:12;99609.41;;;1.39;49.64
76660;BME280;65579;45.534;6.212;2023-02-18T05:36:36;99610.79;;;2.34;48.32
76660;BME280;65579;45.534;6.212;2023-02-18T05:39:02;99612.87;;;1.95;50.38
76660;BME280;65579;45.534;6.212;2023-02-18T05:41:27;99617.61;;;1.08;49.85
76660;BME280;65579;45.534;6.212;2023-02-18T05:43:53;99620.02;;;1.60;51.53
76660;BME280;65579;45.534;6.212;2023-02-18T05:46:18;99618.23;;;2.93;48.12
76660;BME280;65579;45.534;6.212;2023-02-18T05:48:44;99625.11;;;1.56;49.87
76660;BME280;65579;45.534;6.212;2023-02-18T05:51:09;99625.14;;;1.24;50.79
76660;BME280;65579;45.534;6.212;2023-02-18T05:53:34;99623.94;;;2.19;49.44
76660;BME280;65579;45.534;6.212;2023-02-18T05:55:59;99628.08;;;1.59;50.59
76660;BME280;65579;45.534;6.212;2023-02-18T05:58:25;99626.33;;;2.42;49.15
76660;BME280;65579;45.534;6.212;2023-02-18T06:00:50;99625.01;;;2.17;50.99
76660;BME280;65579;45.534;6.212;2023-02-18T06:03:16;99628.86;;;1.65;51.68
76660;BME280;65579;45.534;6.212;2023-02-18T06:05:42;99624.10;;;1.93;49.86
76660;BME280;65579;45.534;6.212;2023-02-18T06:08:07;99625.89;;;1.40;50.86
76660;BME280;65579;45.534;6.212;2023-02-18T06:10:32;99625.10;;;1.30;51.54
76660;BME280;65579;45.534;6.212;2023-02-18T06:12:58;99621.70;;;2.24;49.18
76660;BME280;65579;45.534;6.212;2023-02-18T06:15:23;99622.91;;;1.38;50.38
76660;BME280;65579;45.534;6.212;2023-02-18T06:17:48;99626.02;;;1.01;50.65
76660;BME280;65579;45.534;6.212;2023-02-18T06:20:13;99624.13;;;1.56;50.30
76660;BME280;65579;45.534;6.212;2023-02-18T06:22:39;99627.44;;;0.96;50.12
76660;BME280;65579;45.534;6.212;2023-02-18T06:25:05;99625.93;;;1.26;50.46
76660;BME280;65579;45.534;6.212;2023-02-18T06:27:30;99622.76;;;2.34;49.79
76660;BME280;65579;45.534;6.212;2023-02-18T06:30:00;99620.76;;;2.42;49.31
76660;BME280;65579;45.534;6.212;2023-02-18T06:32:21;99622.23;;;2.90;49.78
76660;BME280;65579;45.534;6.212;2023-02-18T06:34:55;99620.29;;;3.84;49.60
76660;BME280;65579;45.534;6.212;2023-02-18T06:37:19;99616.56;;;3.70;49.42
76660;BME280;65579;45.534;6.212;2023-02-18T06:39:43;99617.52;;;2.95;51.40
76660;BME280;65579;45.534;6.212;2023-02-18T06:42:02;99625.65;;;1.74;49.97
76660;BME280;65579;45.534;6.212;2023-02-18T06:44:27;99627.44;;;1.65;48.45
76660;BME280;65579;45.534;6.212;2023-02-18T06:46:53;99634.89;;;1.12;51.55
76660;BME280;65579;45.534;6.212;2023-02-18T06:49:18;99633.29;;;1.01;51.94
76660;BME280;65579;45.534;6.212;2023-02-18T06:51:44;99630.80;;;2.00;49.96
76660;BME280;65579;45.534;6.212;2023-02-18T06:54:10;99625.42;;;2.92;47.91
76660;BME280;65579;45.534;6.212;2023-02-18T06:56:35;99632.51;;;1.42;50.68
76660;BME280;65579;45.534;6.212;2023-02-18T06:59:01;99622.26;;;2.10;48.74
76660;BME280;65579;45.534;6.212;2023-02-18T07:01:26;99629.75;;;1.37;50.47
76660;BME280;65579;45.534;6.212;2023-02-18T07:03:52;99630.07;;;1.60;48.49
76660;BME280;65579;45.534;6.212;2023-02-18T07:06:17;99633.86;;;1.10;49.89
76660;BME280;65579;45.534;6.212;2023-02-18T07:08:42;99633.99;;;1.68;47.91
76660;BME280;65579;45.534;6.212;2023-02-18T07:11:07;99635.66;;;0.31;50.02
76660;BME280;65579;45.534;6.212;2023-02-18T07:13:33;99636.59;;;1.31;50.95
76660;BME280;65579;45.534;6.212;2023-02-18T07:15:58;99638.94;;;1.04;49.39
76660;BME280;65579;45.534;6.212;2023-02-18T07:18:24;99642.87;;;0.94;49.14
76660;BME280;65579;45.534;6.212;2023-02-18T07:20:49;99640.60;;;1.49;48.60
76660;BME280;65579;45.534;6.212;2023-02-18T07:23:14;99641.77;;;1.58;48.07
76660;BME280;65579;45.534;6.212;2023-02-18T07:25:39;99643.84;;;1.19;48.82
76660;BME280;65579;45.534;6.212;2023-02-18T07:28:05;99641.79;;;1.69;48.68
76660;BME280;65579;45.534;6.212;2023-02-18T07:30:31;99633.24;;;3.55;45.32
76660;BME280;65579;45.534;6.212;2023-02-18T07:32:56;99630.56;;;3.02;46.73
76660;BME280;65579;45.534;6.212;2023-02-18T07:35:22;99634.13;;;1.83;49.03
76660;BME280;65579;45.534;6.212;2023-02-18T07:37:48;99634.08;;;2.18;49.33
76660;BME280;65579;45.534;6.212;2023-02-18T07:40:15;99636.55;;;1.48;49.47
76660;BME280;65579;45.534;6.212;2023-02-18T07:42:39;99637.88;;;1.49;48.54
76660;BME280;65579;45.534;6.212;2023-02-18T07:45:05;99634.57;;;2.24;46.66
76660;BME280;65579;45.534;6.212;2023-02-18T07:47:29;99630.68;;;1.96;47.34
76660;BME280;65579;45.534;6.212;2023-02-18T07:49:55;99630.84;;;1.31;48.31
76660;BME280;65579;45.534;6.212;2023-02-18T07:52:20;99632.03;;;0.89;50.10
76660;BME280;65579;45.534;6.212;2023-02-18T07:54:46;99631.86;;;0.56;51.11
76660;BME280;65579;45.534;6.212;2023-02-18T07:57:11;99632.62;;;0.97;50.67
76660;BME280;65579;45.534;6.212;2023-02-18T07:59:37;99631.65;;;1.92;49.39
76660;BME280;65579;45.534;6.212;2023-02-18T08:02:03;99623.79;;;2.37;49.06
76660;BME280;65579;45.534;6.212;2023-02-18T08:04:28;99624.72;;;2.31;48.59
76660;BME280;65579;45.534;6.212;2023-02-18T08:06:54;99622.43;;;2.81;48.52
76660;BME280;65579;45.534;6.212;2023-02-18T08:09:19;99622.91;;;2.95;48.70
76660;BME280;65579;45.534;6.212;2023-02-18T08:11:44;99622.35;;;2.16;49.19
76660;BME280;65579;45.534;6.212;2023-02-18T08:14:10;99623.06;;;2.68;48.53
76660;BME280;65579;45.534;6.212;2023-02-18T08:16:36;99624.36;;;3.87;46.96
76660;BME280;65579;45.534;6.212;2023-02-18T08:19:03;99619.95;;;3.00;48.77
76660;BME280;65579;45.534;6.212;2023-02-18T08:21:27;99618.66;;;2.91;49.49
76660;BME280;65579;45.534;6.212;2023-02-18T08:23:52;99620.74;;;3.05;48.75
76660;BME280;65579;45.534;6.212;2023-02-18T08:26:17;99626.02;;;3.31;48.93
76660;BME280;65579;45.534;6.212;2023-02-18T08:28:43;99624.19;;;3.15;50.18
76660;BME280;65579;45.534;6.212;2023-02-18T08:33:33;99626.93;;;4.17;48.56
76660;BME280;65579;45.534;6.212;2023-02-18T08:35:57;99630.20;;;3.93;50.21
76660;BME280;65579;45.534;6.212;2023-02-18T08:38:24;99632.74;;;3.83;50.42
76660;BME280;65579;45.534;6.212;2023-02-18T08:40:49;99637.63;;;3.73;49.64
76660;BME280;65579;45.534;6.212;2023-02-18T08:43:15;99633.99;;;3.45;49.32
76660;BME280;65579;45.534;6.212;2023-02-18T08:45:39;99636.97;;;3.58;49.14
76660;BME280;65579;45.534;6.212;2023-02-18T08:48:05;99634.27;;;3.53;49.73
76660;BME280;65579;45.534;6.212;2023-02-18T08:50:31;99637.82;;;3.54;50.35
76660;BME280;65579;45.534;6.212;2023-02-18T08:52:56;99634.22;;;4.04;50.09
76660;BME280;65579;45.534;6.212;2023-02-18T08:55:22;99634.29;;;4.04;49.41
76660;BME280;65579;45.534;6.212;2023-02-18T08:57:48;99630.44;;;4.97;47.58
76660;BME280;65579;45.534;6.212;2023-02-18T09:00:14;99632.43;;;4.71;48.62
76660;BME280;65579;45.534;6.212;2023-02-18T09:02:39;99630.91;;;4.54;48.72
76660;BME280;65579;45.534;6.212;2023-02-18T09:05:05;99629.14;;;4.98;47.70
76660;BME280;65579;45.534;6.212;2023-02-18T09:07:29;99633.74;;;5.47;46.96
76660;BME280;65579;45.534;6.212;2023-02-18T09:09:54;99635.03;;;5.85;47.63
76660;BME280;65579;45.534;6.212;2023-02-18T09:12:19;99634.44;;;5.12;48.84
76660;BME280;65579;45.534;6.212;2023-02-18T09:14:46;99634.42;;;5.92;47.95
76660;BME280;65579;45.534;6.212;2023-02-18T09:17:10;99634.02;;;5.55;47.22
76660;BME280;65579;45.534;6.212;2023-02-18T09:19:35;99632.94;;;5.80;47.65
76660;BME280;65579;45.534;6.212;2023-02-18T09:22:01;99639.73;;;5.93;48.38
76660;BME280;65579;45.534;6.212;2023-02-18T09:24:27;99641.14;;;5.60;48.56
76660;BME280;65579;45.534;6.212;2023-02-18T09:26:52;99637.08;;;5.97;47.91
76660;BME280;65579;45.534;6.212;2023-02-18T09:29:18;99638.69;;;6.03;47.69
76660;BME280;65579;45.534;6.212;2023-02-18T09:31:44;99636.89;;;5.94;48.02
76660;BME280;65579;45.534;6.212;2023-02-18T09:34:08;99632.33;;;6.82;46.46
76660;BME280;65579;45.534;6.212;2023-02-18T09:36:34;99635.90;;;6.44;47.02
76660;BME280;65579;45.534;6.212;2023-02-18T09:38:59;99633.93;;;6.14;47.79
76660;BME280;65579;45.534;6.212;2023-02-18T09:41:33;99629.51;;;6.22;46.15
76660;BME280;65579;45.534;6.212;2023-02-18T09:43:53;99625.17;;;6.17;45.55
76660;BME280;65579;45.534;6.212;2023-02-18T09:46:27;99615.87;;;7.17;44.80
76660;BME280;65579;45.534;6.212;2023-02-18T09:48:44;99613.12;;;7.05;45.13
76660;BME280;65579;45.534;6.212;2023-02-18T09:51:09;99607.71;;;6.61;45.78
76660;BME280;65579;45.534;6.212;2023-02-18T09:53:32;99609.59;;;6.76;45.95
76660;BME280;65579;45.534;6.212;2023-02-18T09:55:58;99613.01;;;6.41;46.35
76660;BME280;65579;45.534;6.212;2023-02-18T09:58:25;99609.21;;;6.24;46.79
76660;BME280;65579;45.534;6.212;2023-02-18T10:00:51;99608.33;;;6.13;47.31
76660;BME280;65579;45.534;6.212;2023-02-18T10:03:15;99601.99;;;6.59;44.88
76660;BME280;65579;45.534;6.212;2023-02-18T10:05:45;99595.87;;;6.43;44.39
76660;BME280;65579;45.534;6.212;2023-02-18T10:08:06;99594.99;;;7.08;43.68
76660;BME280;65579;45.534;6.212;2023-02-18T10:10:36;99597.89;;;6.47;44.52
76660;BME280;65579;45.534;6.212;2023-02-18T10:12:54;99592.29;;;6.18;44.85
76660;BME280;65579;45.534;6.212;2023-02-18T10:15:23;99589.09;;;5.83;46.12
76660;BME280;65579;45.534;6.212;2023-02-18T10:17:47;99582.02;;;6.20;44.85
76660;BME280;65579;45.534;6.212;2023-02-18T10:20:17;99578.46;;;6.23;45.12
76660;BME280;65579;45.534;6.212;2023-02-18T10:22:38;99571.60;;;6.84;45.14
76660;BME280;65579;45.534;6.212;2023-02-18T10:25:04;99568.21;;;6.57;44.72
76660;BME280;65579;45.534;6.212;2023-02-18T10:27:32;99571.03;;;6.86;43.29
76660;BME280;65579;45.534;6.212;2023-02-18T10:29:55;99571.36;;;7.17;43.05
76660;BME280;65579;45.534;6.212;2023-02-18T10:32:22;99569.68;;;7.26;42.15
76660;BME280;65579;45.534;6.212;2023-02-18T10:34:47;99566.12;;;8.00;41.14
76660;BME280;65579;45.534;6.212;2023-02-18T10:37:23;99562.07;;;8.52;40.01
76660;BME280;65579;45.534;6.212;2023-02-18T10:39:44;99557.65;;;8.02;40.89
76660;BME280;65579;45.534;6.212;2023-02-18T10:42:13;99552.19;;;8.32;40.61
76660;BME280;65579;45.534;6.212;2023-02-18T10:44:32;99548.18;;;7.57;41.59
76660;BME280;65579;45.534;6.212;2023-02-18T10:46:59;99545.63;;;8.86;41.19
76660;BME280;65579;45.534;6.212;2023-02-18T10:49:33;99544.14;;;8.73;40.78
76660;BME280;65579;45.534;6.212;2023-02-18T10:51:49;99539.57;;;8.83;39.67
76660;BME280;65579;45.534;6.212;2023-02-18T10:54:07;99535.43;;;8.91;40.12
76660;BME280;65579;45.534;6.212;2023-02-18T10:56:36;99535.91;;;9.50;38.62
76660;BME280;65579;45.534;6.212;2023-02-18T10:59:04;99536.95;;;9.49;39.76
76660;BME280;65579;45.534;6.212;2023-02-18T11:01:24;99532.42;;;9.77;37.84
76660;BME280;65579;45.534;6.212;2023-02-18T11:03:51;99529.53;;;9.94;38.09
76660;BME280;65579;45.534;6.212;2023-02-18T11:06:20;99524.87;;;9.79;38.65
76660;BME280;65579;45.534;6.212;2023-02-18T11:08:43;99525.11;;;9.69;39.71
76660;BME280;65579;45.534;6.212;2023-02-18T11:11:11;99517.14;;;10.05;37.18
76660;BME280;65579;45.534;6.212;2023-02-18T11:13:30;99511.00;;;9.96;38.54
76660;BME280;65579;45.534;6.212;2023-02-18T11:15:59;99510.07;;;9.97;36.02
76660;BME280;65579;45.534;6.212;2023-02-18T11:18:29;99509.79;;;10.66;36.96
76660;BME280;65579;45.534;6.212;2023-02-18T11:20:54;99513.15;;;9.61;37.57
76660;BME280;65579;45.534;6.212;2023-02-18T11:23:17;99508.52;;;9.80;38.29
76660;BME280;65579;45.534;6.212;2023-02-18T11:25:40;99506.69;;;10.09;37.53
76660;BME280;65579;45.534;6.212;2023-02-18T11:30:33;99491.17;;;10.72;35.41
76660;BME280;65579;45.534;6.212;2023-02-18T11:32:55;99486.50;;;10.71;35.22
76660;BME280;65579;45.534;6.212;2023-02-18T11:35:21;99479.71;;;10.94;34.92
76660;BME280;65579;45.534;6.212;2023-02-18T11:37:44;99477.05;;;11.00;35.58
76660;BME280;65579;45.534;6.212;2023-02-18T11:40:21;99471.00;;;10.81;35.21
76660;BME280;65579;45.534;6.212;2023-02-18T11:42:35;99465.70;;;10.57;36.64
76660;BME280;65579;45.534;6.212;2023-02-18T11:45:00;99459.32;;;11.40;37.87
76660;BME280;65579;45.534;6.212;2023-02-18T11:47:30;99454.46;;;10.66;36.42
76660;BME280;65579;45.534;6.212;2023-02-18T11:50:03;99450.16;;;11.18;39.62
76660;BME280;65579;45.534;6.212;2023-02-18T11:52:18;99444.51;;;10.84;38.31
76660;BME280;65579;45.534;6.212;2023-02-18T11:54:41;99444.64;;;11.60;38.12
76660;BME280;65579;45.534;6.212;2023-02-18T11:57:11;99437.94;;;10.45;36.67
76660;BME280;65579;45.534;6.212;2023-02-18T11:59:34;99434.71;;;10.99;36.07
76660;BME280;65579;45.534;6.212;2023-02-18T12:02:02;99432.88;;;11.17;37.88
76660;BME280;65579;45.534;6.212;2023-02-18T12:04:27;99425.77;;;11.32;38.17
76660;BME280;65579;45.534;6.212;2023-02-18T12:06:51;99423.82;;;11.46;37.37
76660;BME280;65579;45.534;6.212;2023-02-18T12:09:22;99427.44;;;11.91;36.63
76660;BME280;65579;45.534;6.212;2023-02-18T12:11:41;99425.36;;;11.21;37.94
76660;BME280;65579;45.534;6.212;2023-02-18T12:14:10;99425.58;;;10.79;37.73
76660;BME280;65579;45.534;6.212;2023-02-18T12:16:36;99419.75;;;11.57;37.85
76660;BME280;65579;45.534;6.212;2023-02-18T12:19:06;99420.64;;;10.84;37.94
76660;BME280;65579;45.534;6.212;2023-02-18T12:21:31;99418.23;;;10.91;38.80
76660;BME280;65579;45.534;6.212;2023-02-18T12:23:56;99412.00;;;10.72;37.49
76660;BME280;65579;45.534;6.212;2023-02-18T12:26:21;99405.12;;;10.85;37.73
76660;BME280;65579;45.534;6.212;2023-02-18T12:28:49;99399.06;;;11.59;37.49
76660;BME280;65579;45.534;6.212;2023-02-18T12:31:13;99399.85;;;11.33;38.23
76660;BME280;65579;45.534;6.212;2023-02-18T12:33:34;99394.80;;;11.57;38.62
76660;BME280;65579;45.534;6.212;2023-02-18T12:36:03;99392.88;;;12.45;36.36
76660;BME280;65579;45.534;6.212;2023-02-18T12:38:42;99389.49;;;12.81;33.43
76660;BME280;65579;45.534;6.212;2023-02-18T12:40:56;99384.89;;;12.35;36.10
76660;BME280;65579;45.534;6.212;2023-02-18T12:43:18;99381.20;;;12.92;35.88
76660;BME280;65579;45.534;6.212;2023-02-18T12:45:48;99376.50;;;12.87;35.57
76660;BME280;65579;45.534;6.212;2023-02-18T12:48:10;99374.37;;;12.67;35.49
76660;BME280;65579;45.534;6.212;2023-02-18T12:50:36;99366.94;;;12.01;35.65
76660;BME280;65579;45.534;6.212;2023-02-18T12:53:01;99369.79;;;12.13;35.74
76660;BME280;65579;45.534;6.212;2023-02-18T12:55:29;99371.16;;;12.57;35.78
76660;BME280;65579;45.534;6.212;2023-02-18T12:57:43;99365.62;;;12.64;35.46
76660;BME280;65579;45.534;6.212;2023-02-18T13:02:45;99354.63;;;13.84;33.63
76660;BME280;65579;45.534;6.212;2023-02-18T13:05:04;99344.56;;;13.49;34.08
76660;BME280;65579;45.534;6.212;2023-02-18T13:07:39;99341.95;;;13.46;34.92
76660;BME280;65579;45.534;6.212;2023-02-18T13:09:59;99343.30;;;14.02;34.70
76660;BME280;65579;45.534;6.212;2023-02-18T13:12:16;99341.61;;;13.38;34.82
76660;BME280;65579;45.534;6.212;2023-02-18T13:14:43;99340.17;;;13.49;35.01
76660;BME280;65579;45.534;6.212;2023-02-18T13:17:05;99333.33;;;13.84;34.82